Time;durP1;ratioP1;P1;durP2;ratioP2;P2;SDS_P1;SDS_P2;PMS_P1;PMS_P2;Temp;Humidity;BMP_temperature;BMP_pressure;BME280_temperature;BME280_humidity;BME280_pressure;Samples;Min_cycle;Max_cycle;Signal;HPM_P1;HPM_P2
2021/07/27 00:01:10;;;;;;;18.77;11.23;;;;;;;;;;4984029;28;20055;-74
2021/07/27 00:03:39;;;;;;;20.25;11.65;;;;;;;;;;4994791;28;20037;-75
2021/07/27 00:06:09;;;;;;;21.45;11.10;;;;;;;;;;4984487;28;20036;-75
2021/07/27 00:08:36;;;;;;;20.63;10.68;;;;;;;;;;4967817;28;20030;-74
2021/07/27 00:11:06;;;;;;;23.50;11.07;;;;;;;;;;4985700;28;20128;-75
2021/07/27 00:13:32;;;;;;;21.08;11.07;;;;;;;;;;4989218;28;20022;-74
2021/07/27 00:15:58;;;;;;;19.23;11.30;;;;;;;;;;4985686;28;20516;-74
2021/07/27 00:18:23;;;;;;;22.10;12.48;;;;;;;;;;4987127;28;20029;-75
2021/07/27 00:20:49;;;;;;;18.80;11.05;;;;;;;;;;4982620;28;20045;-74
2021/07/27 00:23:15;;;;;;;17.52;10.85;;;;;;;;;;4998821;28;20053;-74
2021/07/27 00:25:42;;;;;;;22.80;12.00;;;;;;;;;;4985311;28;20038;-74
2021/07/27 00:28:08;;;;;;;26.92;14.38;;;;;;;;;;4988995;28;20030;-74
2021/07/27 00:30:34;;;;;;;23.08;13.88;;;;;;;;;;5009268;28;20093;-74
2021/07/27 00:32:59;;;;;;;23.77;13.82;;;;;;;;;;4993151;28;20573;-75
2021/07/27 00:35:25;;;;;;;23.90;14.18;;;;;;;;;;4991909;28;20034;-75
2021/07/27 00:38:09;;;;;;;29.75;14.57;;;;;;;;;;4994106;28;20099;-75
2021/07/27 00:40:39;;;;;;;22.25;13.75;;;;;;;;;;4983420;28;20059;-75
2021/07/27 00:43:07;;;;;;;24.65;13.90;;;;;;;;;;4985839;28;20029;-75
2021/07/27 00:45:33;;;;;;;25.13;13.77;;;;;;;;;;4987077;28;20030;-74
2021/07/27 00:48:00;;;;;;;26.42;14.10;;;;;;;;;;4989505;28;20652;-75
2021/07/27 00:50:25;;;;;;;20.95;12.82;;;;;;;;;;4986084;28;20496;-74
2021/07/27 00:52:51;;;;;;;22.15;13.00;;;;;;;;;;4989539;28;20041;-75
2021/07/27 00:55:17;;;;;;;24.30;13.50;;;;;;;;;;4983825;28;20030;-74
2021/07/27 00:57:44;;;;;;;32.15;12.20;;;;;;;;;;4999754;28;20469;-74
2021/07/27 01:00:11;;;;;;;24.73;13.65;;;;;;;;;;4975455;28;20034;-74
2021/07/27 01:02:36;;;;;;;26.65;14.93;;;;;;;;;;5003315;28;20034;-74
2021/07/27 01:05:02;;;;;;;21.15;12.95;;;;;;;;;;4988650;28;20037;-74
2021/07/27 01:07:28;;;;;;;24.23;13.50;;;;;;;;;;4978375;28;20031;-75
2021/07/27 01:09:54;;;;;;;24.05;13.02;;;;;;;;;;4967925;28;20048;-74
2021/07/27 01:12:19;;;;;;;21.80;11.98;;;;;;;;;;4986543;28;20045;-75
2021/07/27 01:14:45;;;;;;;26.90;14.65;;;;;;;;;;4979958;28;20043;-74
2021/07/27 01:17:10;;;;;;;22.35;13.27;;;;;;;;;;4986121;28;20113;-75
2021/07/27 01:43:48;;;;;;;20.73;13.02;;;;;;;;;;4992563;28;20038;-75
2021/07/27 01:46:17;;;;;;;22.73;11.23;;;;;;;;;;4984801;28;20029;-75
2021/07/27 01:48:44;;;;;;;23.67;12.35;;;;;;;;;;4991208;28;20042;-75
2021/07/27 01:51:10;;;;;;;23.50;12.38;;;;;;;;;;4990032;28;20038;-75
2021/07/27 01:53:43;;;;;;;18.98;11.57;;;;;;;;;;4988569;28;20072;-74
2021/07/27 01:56:09;;;;;;;18.33;11.63;;;;;;;;;;4990513;28;20117;-74
2021/07/27 01:58:35;;;;;;;20.02;12.50;;;;;;;;;;4994112;28;20046;-74
2021/07/27 02:01:00;;;;;;;20.48;11.07;;;;;;;;;;4974897;28;20041;-74
2021/07/27 02:03:26;;;;;;;20.60;12.13;;;;;;;;;;4990967;28;20520;-76
2021/07/27 02:05:51;;;;;;;18.23;11.63;;;;;;;;;;4985866;28;20493;-74
2021/07/27 02:08:17;;;;;;;19.60;12.20;;;;;;;;;;4967070;28;20026;-75
2021/07/27 02:10:46;;;;;;;18.55;11.60;;;;;;;;;;4975952;28;20031;-75
2021/07/27 02:13:14;;;;;;;19.65;11.50;;;;;;;;;;4990019;28;20031;-75
2021/07/27 02:15:43;;;;;;;20.70;12.30;;;;;;;;;;4961049;28;20097;-75
2021/07/27 02:18:10;;;;;;;20.55;12.30;;;;;;;;;;4989514;28;20033;-74
2021/07/27 02:20:36;;;;;;;20.67;12.32;;;;;;;;;;4999273;28;20022;-74
2021/07/27 02:23:04;;;;;;;20.77;12.77;;;;;;;;;;4989297;28;20481;-74
2021/07/27 02:25:30;;;;;;;21.83;11.82;;;;;;;;;;4992870;28;20129;-74
2021/07/27 02:27:59;;;;;;;21.48;11.75;;;;;;;;;;4986720;28;20133;-74
2021/07/27 02:30:25;;;;;;;18.58;10.40;;;;;;;;;;4991676;28;20413;-74
2021/07/27 02:32:50;;;;;;;17.83;11.10;;;;;;;;;;4991877;28;20038;-74
2021/07/27 02:35:16;;;;;;;17.38;10.93;;;;;;;;;;4991486;28;20477;-74
2021/07/27 02:37:41;;;;;;;23.80;10.65;;;;;;;;;;4996419;28;20531;-74
2021/07/27 02:40:09;;;;;;;18.88;10.90;;;;;;;;;;4983558;28;20041;-74
2021/07/27 02:42:35;;;;;;;19.80;11.57;;;;;;;;;;5002119;28;20113;-74
2021/07/27 02:45:05;;;;;;;21.20;10.57;;;;;;;;;;4996374;28;20121;-75
2021/07/27 02:47:32;;;;;;;19.42;11.43;;;;;;;;;;4987372;28;20400;-74
2021/07/27 02:49:57;;;;;;;19.63;11.32;;;;;;;;;;4991787;28;20109;-74
2021/07/27 02:52:23;;;;;;;22.63;11.95;;;;;;;;;;4992178;28;20113;-76
2021/07/27 02:54:48;;;;;;;17.60;11.63;;;;;;;;;;4994721;28;20042;-75
2021/07/27 02:57:17;;;;;;;21.17;11.95;;;;;;;;;;4987711;28;20393;-75
2021/07/27 02:59:42;;;;;;;21.50;11.10;;;;;;;;;;4992116;28;20109;-74
2021/07/27 03:02:08;;;;;;;17.73;11.25;;;;;;;;;;4991568;28;20169;-75
2021/07/27 03:04:33;;;;;;;19.08;11.07;;;;;;;;;;4982945;28;20494;-75
2021/07/27 03:06:59;;;;;;;20.98;12.07;;;;;;;;;;4980075;28;20045;-75
2021/07/27 03:09:27;;;;;;;23.30;12.50;;;;;;;;;;4972907;28;20173;-75
2021/07/27 03:11:53;;;;;;;20.63;10.80;;;;;;;;;;4976224;28;20125;-75
2021/07/27 03:14:18;;;;;;;26.80;12.65;;;;;;;;;;4995029;28;20523;-75
2021/07/27 03:16:44;;;;;;;22.50;10.65;;;;;;;;;;4995325;28;20029;-74
2021/07/27 03:19:09;;;;;;;19.77;10.52;;;;;;;;;;4992247;28;20058;-75
2021/07/27 03:21:35;;;;;;;24.50;11.20;;;;;;;;;;4998101;28;20037;-73
2021/07/27 03:24:00;;;;;;;18.55;11.35;;;;;;;;;;4995704;28;20026;-74
2021/07/27 03:26:26;;;;;;;22.05;12.50;;;;;;;;;;4988445;28;20049;-74
2021/07/27 03:28:52;;;;;;;17.75;11.63;;;;;;;;;;5006770;28;20037;-75
2021/07/27 03:31:18;;;;;;;17.67;10.90;;;;;;;;;;4992189;28;20045;-74
2021/07/27 03:33:44;;;;;;;31.00;12.40;;;;;;;;;;4989912;28;20061;-75
2021/07/27 03:36:10;;;;;;;21.25;12.20;;;;;;;;;;4993213;28;20792;-74
2021/07/27 03:38:40;;;;;;;22.75;12.77;;;;;;;;;;4996381;28;20109;-75
2021/07/27 03:41:07;;;;;;;18.67;11.95;;;;;;;;;;5000110;28;20041;-74
2021/07/27 03:43:33;;;;;;;20.33;12.10;;;;;;;;;;5000691;28;20036;-74
2021/07/27 03:45:59;;;;;;;21.95;12.75;;;;;;;;;;4995339;28;20030;-75
2021/07/27 03:48:25;;;;;;;25.15;10.85;;;;;;;;;;5000657;28;20029;-74
2021/07/27 03:50:50;;;;;;;22.67;12.02;;;;;;;;;;4997089;28;20130;-75
2021/07/27 03:53:16;;;;;;;18.27;10.80;;;;;;;;;;4987214;28;20121;-74
2021/07/27 03:55:45;;;;;;;16.90;12.13;;;;;;;;;;4989020;28;20489;-74
2021/07/27 03:58:10;;;;;;;22.70;12.05;;;;;;;;;;4994797;28;20566;-75
2021/07/27 04:00:36;;;;;;;20.58;12.52;;;;;;;;;;4992003;28;20050;-76
2021/07/27 04:03:02;;;;;;;19.70;11.82;;;;;;;;;;4985285;28;20049;-74
2021/07/27 04:05:27;;;;;;;18.45;12.18;;;;;;;;;;4987739;28;20516;-76
2021/07/27 04:07:53;;;;;;;26.05;12.82;;;;;;;;;;4984489;28;20034;-76
2021/07/27 04:10:18;;;;;;;20.83;12.35;;;;;;;;;;4981083;28;20029;-74
2021/07/27 04:12:44;;;;;;;21.40;13.60;;;;;;;;;;4993611;28;20109;-75
2021/07/27 04:15:09;;;;;;;20.92;13.05;;;;;;;;;;4993655;28;20054;-75
2021/07/27 04:17:35;;;;;;;21.23;13.05;;;;;;;;;;4977420;28;20084;-74
2021/07/27 04:20:01;;;;;;;24.40;12.63;;;;;;;;;;4987925;28;20046;-76
2021/07/27 04:22:26;;;;;;;21.00;12.75;;;;;;;;;;4993110;28;20037;-73
2021/07/27 04:24:52;;;;;;;22.05;11.80;;;;;;;;;;4978839;28;20531;-76
2021/07/27 04:27:27;;;;;;;21.67;11.70;;;;;;;;;;4984396;28;20038;-74
2021/07/27 04:29:53;;;;;;;26.98;12.65;;;;;;;;;;4989998;28;20397;-75
2021/07/27 04:32:18;;;;;;;23.20;13.27;;;;;;;;;;4989499;28;20041;-74
2021/07/27 04:34:44;;;;;;;22.48;12.73;;;;;;;;;;4992870;28;20026;-74
2021/07/27 04:37:09;;;;;;;24.65;11.85;;;;;;;;;;4995677;28;20030;-74
2021/07/27 04:39:35;;;;;;;23.15;11.77;;;;;;;;;;4985846;28;20525;-75
2021/07/27 04:42:01;;;;;;;18.38;11.77;;;;;;;;;;4991277;28;20053;-75
2021/07/27 04:44:27;;;;;;;19.65;12.10;;;;;;;;;;4991092;28;20026;-75
2021/07/27 04:46:52;;;;;;;19.08;11.45;;;;;;;;;;4982446;28;20031;-75
2021/07/27 04:49:18;;;;;;;21.60;12.90;;;;;;;;;;4993354;28;20027;-75
2021/07/27 04:51:43;;;;;;;26.88;12.90;;;;;;;;;;4997119;28;20026;-75
2021/07/27 04:54:15;;;;;;;24.08;11.95;;;;;;;;;;4970272;28;20510;-74
2021/07/27 04:56:41;;;;;;;21.13;11.85;;;;;;;;;;4992171;28;20045;-74
2021/07/27 04:59:06;;;;;;;22.88;12.90;;;;;;;;;;4972923;28;20578;-75
2021/07/27 05:01:32;;;;;;;28.23;13.60;;;;;;;;;;4988756;28;20037;-75
2021/07/27 05:03:58;;;;;;;26.13;14.02;;;;;;;;;;4989777;28;20022;-76
2021/07/27 05:06:23;;;;;;;23.42;14.00;;;;;;;;;;4970915;28;20034;-75
2021/07/27 05:08:49;;;;;;;20.85;12.98;;;;;;;;;;4992847;28;20143;-74
2021/07/27 05:11:15;;;;;;;26.00;13.32;;;;;;;;;;5007117;28;20302;-74
2021/07/27 05:13:40;;;;;;;20.75;11.93;;;;;;;;;;4985342;28;20540;-75
2021/07/27 05:16:14;;;;;;;19.70;11.85;;;;;;;;;;4989394;28;20034;-73
2021/07/27 05:18:40;;;;;;;22.38;12.70;;;;;;;;;;4986408;28;20182;-75
2021/07/27 05:21:05;;;;;;;20.75;12.10;;;;;;;;;;4982948;28;20062;-75
2021/07/27 05:23:31;;;;;;;21.38;12.20;;;;;;;;;;4981094;28;20036;-74
2021/07/27 05:25:57;;;;;;;21.67;11.60;;;;;;;;;;4998627;28;20035;-74
2021/07/27 05:28:25;;;;;;;24.27;13.48;;;;;;;;;;5006861;28;20392;-75
2021/07/27 05:30:51;;;;;;;22.85;12.05;;;;;;;;;;4990347;28;20046;-75
2021/07/27 05:33:16;;;;;;;18.85;11.40;;;;;;;;;;4989087;28;20034;-75
2021/07/27 05:35:42;;;;;;;24.90;13.05;;;;;;;;;;4991099;28;20034;-76
2021/07/27 05:38:07;;;;;;;20.00;11.77;;;;;;;;;;4992312;28;20034;-75
2021/07/27 05:40:33;;;;;;;17.95;11.00;;;;;;;;;;4982162;28;20122;-74
2021/07/27 05:42:59;;;;;;;22.10;12.82;;;;;;;;;;4972914;28;20038;-75
2021/07/27 05:45:25;;;;;;;19.27;11.45;;;;;;;;;;4985450;28;20034;-75
2021/07/27 05:47:51;;;;;;;18.63;11.32;;;;;;;;;;4998538;28;20049;-75
2021/07/27 05:50:18;;;;;;;22.23;12.60;;;;;;;;;;4995194;28;20045;-75
2021/07/27 05:52:44;;;;;;;22.55;11.93;;;;;;;;;;4988247;28;20051;-75
2021/07/27 05:55:10;;;;;;;21.65;12.20;;;;;;;;;;4987164;28;20117;-74
2021/07/27 05:57:35;;;;;;;25.25;11.93;;;;;;;;;;4992202;28;20039;-75
2021/07/27 06:00:01;;;;;;;19.67;11.00;;;;;;;;;;4983965;28;20088;-74
2021/07/27 06:02:26;;;;;;;22.20;11.05;;;;;;;;;;4987048;28;20036;-75
2021/07/27 06:04:52;;;;;;;21.55;10.90;;;;;;;;;;4974704;28;20041;-75
2021/07/27 06:07:17;;;;;;;17.70;10.23;;;;;;;;;;4966872;28;20109;-74
2021/07/27 06:09:43;;;;;;;16.55;10.52;;;;;;;;;;4981765;28;20228;-75
2021/07/27 06:12:09;;;;;;;20.40;10.93;;;;;;;;;;4976639;28;20576;-75
2021/07/27 06:14:34;;;;;;;19.42;10.98;;;;;;;;;;4997457;28;20413;-74
2021/07/27 06:17:00;;;;;;;16.83;10.07;;;;;;;;;;4993197;28;20037;-75
2021/07/27 06:19:26;;;;;;;16.48;9.85;;;;;;;;;;4997667;28;20058;-76
2021/07/27 06:21:52;;;;;;;16.08;10.23;;;;;;;;;;4993438;28;20123;-75
2021/07/27 06:24:17;;;;;;;22.30;11.75;;;;;;;;;;4986377;28;20557;-75
2021/07/27 06:26:43;;;;;;;15.35;9.50;;;;;;;;;;4991692;28;20053;-75
2021/07/27 06:29:09;;;;;;;15.05;8.95;;;;;;;;;;4995892;28;20029;-75
2021/07/27 06:31:35;;;;;;;16.75;9.45;;;;;;;;;;4986048;28;20034;-75
2021/07/27 06:34:02;;;;;;;17.83;9.45;;;;;;;;;;4992824;28;20030;-74
2021/07/27 06:36:28;;;;;;;18.90;9.15;;;;;;;;;;4989618;28;20030;-74
2021/07/27 06:38:57;;;;;;;15.55;9.15;;;;;;;;;;4978071;28;20407;-74
2021/07/27 06:41:23;;;;;;;14.70;8.82;;;;;;;;;;4973031;28;20205;-76
2021/07/27 06:43:48;;;;;;;15.57;8.00;;;;;;;;;;4977705;28;20037;-75
2021/07/27 06:46:14;;;;;;;20.35;9.60;;;;;;;;;;4983450;28;20041;-74
2021/07/27 06:48:40;;;;;;;16.85;7.68;;;;;;;;;;4992352;28;20623;-76
2021/07/27 06:51:17;;;;;;;14.30;8.93;;;;;;;;;;4993547;28;20030;-75
2021/07/27 06:53:44;;;;;;;17.55;8.68;;;;;;;;;;4990499;28;20590;-75
2021/07/27 06:56:11;;;;;;;19.88;9.07;;;;;;;;;;5000477;28;20030;-75
2021/07/27 06:58:38;;;;;;;23.70;7.90;;;;;;;;;;4985197;28;20047;-75
2021/07/27 07:01:09;;;;;;;14.68;8.00;;;;;;;;;;4991983;28;20042;-75
2021/07/27 07:03:36;;;;;;;14.98;7.03;;;;;;;;;;4990447;28;20117;-75
2021/07/27 07:06:03;;;;;;;21.48;7.07;;;;;;;;;;4997321;28;20029;-75
2021/07/27 07:08:28;;;;;;;16.65;8.00;;;;;;;;;;4989991;28;20165;-75
2021/07/27 07:10:55;;;;;;;18.52;9.23;;;;;;;;;;4969330;28;20547;-75
2021/07/27 07:13:20;;;;;;;17.85;8.65;;;;;;;;;;4988231;28;20038;-75
2021/07/27 07:15:46;;;;;;;12.85;8.25;;;;;;;;;;4988491;28;20421;-75
2021/07/27 07:18:11;;;;;;;14.93;8.13;;;;;;;;;;4985688;28;20047;-75
2021/07/27 07:20:36;;;;;;;25.17;9.63;;;;;;;;;;4955977;28;20041;-74
2021/07/27 07:23:02;;;;;;;11.82;7.50;;;;;;;;;;4996345;28;20042;-75
2021/07/27 07:25:27;;;;;;;17.00;7.72;;;;;;;;;;4974172;28;20034;-74
2021/07/27 07:27:53;;;;;;;13.45;7.25;;;;;;;;;;4986106;28;20041;-75
2021/07/27 07:30:18;;;;;;;19.58;6.85;;;;;;;;;;4992306;28;20026;-75
2021/07/27 07:32:44;;;;;;;12.25;6.30;;;;;;;;;;5000296;28;20022;-75
2021/07/27 07:35:10;;;;;;;11.18;5.63;;;;;;;;;;4992445;28;20085;-75
2021/07/27 07:37:35;;;;;;;13.07;6.40;;;;;;;;;;4987862;28;20093;-74
2021/07/27 07:40:01;;;;;;;21.45;5.95;;;;;;;;;;4995609;28;20576;-75
2021/07/27 07:42:26;;;;;;;9.13;5.25;;;;;;;;;;4992400;28;20050;-74
2021/07/27 07:44:52;;;;;;;13.15;6.05;;;;;;;;;;4971099;28;20057;-75
2021/07/27 07:47:17;;;;;;;12.95;6.15;;;;;;;;;;4984538;28;20065;-75
2021/07/27 07:49:43;;;;;;;9.75;6.38;;;;;;;;;;4990591;28;20029;-75
2021/07/27 07:52:08;;;;;;;13.52;6.32;;;;;;;;;;4989924;28;20509;-75
2021/07/27 07:54:34;;;;;;;9.55;6.20;;;;;;;;;;4985901;28;20073;-74
2021/07/27 07:57:00;;;;;;;13.65;6.65;;;;;;;;;;4975702;28;20045;-75
2021/07/27 07:59:26;;;;;;;11.57;6.45;;;;;;;;;;4980875;28;20052;-75
2021/07/27 08:01:55;;;;;;;15.85;7.35;;;;;;;;;;4982424;28;20038;-74
2021/07/27 08:04:22;;;;;;;20.00;6.55;;;;;;;;;;4998720;28;20088;-75
2021/07/27 08:06:48;;;;;;;16.45;7.28;;;;;;;;;;4984574;28;20046;-74
2021/07/27 08:09:13;;;;;;;8.40;5.55;;;;;;;;;;4984835;28;20428;-74
2021/07/27 08:11:40;;;;;;;15.15;6.93;;;;;;;;;;4980768;28;20154;-74
2021/07/27 08:14:06;;;;;;;11.35;6.97;;;;;;;;;;4982704;28;20424;-75
2021/07/27 08:16:31;;;;;;;13.00;6.38;;;;;;;;;;4987695;28;20037;-75
2021/07/27 08:19:00;;;;;;;14.38;6.22;;;;;;;;;;4979820;28;20070;-74
2021/07/27 08:21:27;;;;;;;14.13;5.95;;;;;;;;;;4993945;28;20429;-75
2021/07/27 08:23:52;;;;;;;15.73;6.45;;;;;;;;;;4973801;28;20041;-75
2021/07/27 08:26:18;;;;;;;13.00;6.40;;;;;;;;;;4984797;28;20025;-74
2021/07/27 08:28:45;;;;;;;16.65;5.80;;;;;;;;;;4987178;28;20014;-76
2021/07/27 08:31:12;;;;;;;10.90;6.00;;;;;;;;;;4969371;28;20034;-74
2021/07/27 08:33:37;;;;;;;11.45;5.80;;;;;;;;;;4983296;28;20474;-75
2021/07/27 08:36:03;;;;;;;12.10;5.55;;;;;;;;;;4989589;28;20129;-74
2021/07/27 08:38:28;;;;;;;9.32;5.30;;;;;;;;;;4985458;28;20062;-74
2021/07/27 08:40:57;;;;;;;7.95;5.03;;;;;;;;;;4965576;28;20058;-73
2021/07/27 08:43:23;;;;;;;11.23;4.85;;;;;;;;;;4971901;28;20571;-74
2021/07/27 08:45:50;;;;;;;12.20;6.05;;;;;;;;;;4967775;28;20066;-73
2021/07/27 08:48:17;;;;;;;12.27;5.35;;;;;;;;;;4988173;28;20034;-73
2021/07/27 08:50:44;;;;;;;11.60;7.15;;;;;;;;;;4993962;28;20026;-73
2021/07/27 08:53:09;;;;;;;17.80;5.70;;;;;;;;;;4998164;28;20540;-73
2021/07/27 08:55:35;;;;;;;9.27;5.10;;;;;;;;;;4991348;28;20038;-73
2021/07/27 08:58:00;;;;;;;10.85;6.18;;;;;;;;;;4976234;28;20034;-74
2021/07/27 09:00:28;;;;;;;14.52;5.05;;;;;;;;;;4997730;28;20489;-74
2021/07/27 09:02:54;;;;;;;10.43;5.60;;;;;;;;;;4995484;28;20479;-74
2021/07/27 09:05:20;;;;;;;11.00;5.78;;;;;;;;;;4996107;28;20136;-73
2021/07/27 09:07:46;;;;;;;9.65;5.40;;;;;;;;;;4992968;28;20494;-74
2021/07/27 09:10:20;;;;;;;14.63;4.95;;;;;;;;;;4992283;28;20052;-74
2021/07/27 09:13:00;;;;;;;8.88;5.00;;;;;;;;;;4990515;28;20045;-75
2021/07/27 09:15:32;;;;;;;5.90;4.38;;;;;;;;;;4993861;28;20092;-74
2021/07/27 09:18:05;;;;;;;10.55;5.22;;;;;;;;;;4996502;28;20134;-74
2021/07/27 09:20:42;;;;;;;7.28;4.95;;;;;;;;;;4998430;28;20058;-74
2021/07/27 09:23:18;;;;;;;8.32;5.40;;;;;;;;;;4988800;28;20061;-74
2021/07/27 09:25:46;;;;;;;17.38;4.85;;;;;;;;;;4992787;28;20037;-74
2021/07/27 09:28:12;;;;;;;9.23;4.88;;;;;;;;;;4992674;28;20109;-73
2021/07/27 09:30:42;;;;;;;12.13;5.72;;;;;;;;;;4997214;28;20022;-73
2021/07/27 09:33:10;;;;;;;8.98;5.57;;;;;;;;;;4993593;28;20030;-74
2021/07/27 09:35:36;;;;;;;8.75;5.13;;;;;;;;;;4996441;28;20022;-74
2021/07/27 09:38:02;;;;;;;10.73;5.00;;;;;;;;;;4987984;28;20030;-73
2021/07/27 09:40:27;;;;;;;8.93;5.43;;;;;;;;;;4987582;28;20022;-73
2021/07/27 09:42:53;;;;;;;21.65;7.22;;;;;;;;;;4994310;28;20030;-74
2021/07/27 09:45:19;;;;;;;10.45;5.70;;;;;;;;;;4998389;28;20129;-74
2021/07/27 09:47:48;;;;;;;11.13;5.10;;;;;;;;;;4995600;28;20560;-74
2021/07/27 09:50:15;;;;;;;9.00;4.47;;;;;;;;;;4996733;28;20018;-74
2021/07/27 09:52:43;;;;;;;7.22;4.07;;;;;;;;;;4992918;28;20078;-67
2021/07/27 09:55:10;;;;;;;8.75;4.80;;;;;;;;;;4988942;28;20619;-67
2021/07/27 09:57:36;;;;;;;16.27;4.57;;;;;;;;;;4999876;28;20140;-69
2021/07/27 10:00:02;;;;;;;6.55;4.35;;;;;;;;;;4999740;28;20469;-69
2021/07/27 10:02:29;;;;;;;9.40;4.68;;;;;;;;;;4993600;28;20034;-68
2021/07/27 10:04:55;;;;;;;9.15;4.63;;;;;;;;;;4992537;28;20026;-69
2021/07/27 10:07:30;;;;;;;10.75;4.65;;;;;;;;;;4992965;28;21296;-68
2021/07/27 10:10:09;;;;;;;11.23;4.78;;;;;;;;;;4995038;28;20110;-68
2021/07/27 10:12:36;;;;;;;9.68;4.65;;;;;;;;;;4974118;28;20034;-68
2021/07/27 10:15:12;;;;;;;17.45;4.75;;;;;;;;;;4986360;28;20049;-67
2021/07/27 10:17:53;;;;;;;8.07;4.85;;;;;;;;;;4991229;28;20022;-68
2021/07/27 10:20:27;;;;;;;8.48;4.68;;;;;;;;;;4992450;28;20062;-67
2021/07/27 10:22:53;;;;;;;12.77;5.15;;;;;;;;;;4990200;28;20026;-67
2021/07/27 10:25:24;;;;;;;11.98;4.50;;;;;;;;;;4988706;28;20030;-67
2021/07/27 10:27:54;;;;;;;10.40;4.40;;;;;;;;;;4988741;28;20033;-68
2021/07/27 10:30:35;;;;;;;9.35;4.55;;;;;;;;;;4989973;28;20041;-67
2021/07/27 10:33:02;;;;;;;5.93;4.23;;;;;;;;;;4993153;28;20578;-68
2021/07/27 10:35:34;;;;;;;11.30;5.18;;;;;;;;;;4980698;28;20026;-68
2021/07/27 10:38:09;;;;;;;12.45;4.70;;;;;;;;;;5006317;28;20057;-67
2021/07/27 10:40:35;;;;;;;10.65;4.45;;;;;;;;;;4988004;28;20041;-67
2021/07/27 10:43:03;;;;;;;13.18;5.55;;;;;;;;;;4988720;28;20030;-67
2021/07/27 10:45:29;;;;;;;11.25;4.85;;;;;;;;;;4988797;28;20549;-68
2021/07/27 10:47:55;;;;;;;5.97;4.10;;;;;;;;;;4985478;28;20109;-68
2021/07/27 10:50:33;;;;;;;10.60;4.70;;;;;;;;;;4994630;28;20030;-68
2021/07/27 10:53:17;;;;;;;11.07;4.63;;;;;;;;;;4988325;28;20042;-68
2021/07/27 10:55:49;;;;;;;8.85;4.70;;;;;;;;;;4994431;28;20354;-67
2021/07/27 10:58:19;;;;;;;10.50;4.93;;;;;;;;;;4992013;28;20028;-68
2021/07/27 11:00:45;;;;;;;8.00;4.90;;;;;;;;;;4991563;28;20039;-67
2021/07/27 11:03:11;;;;;;;7.20;4.20;;;;;;;;;;4992715;28;20248;-67
2021/07/27 11:05:37;;;;;;;13.07;5.22;;;;;;;;;;4994295;28;20031;-68
2021/07/27 11:08:03;;;;;;;6.60;4.57;;;;;;;;;;4988961;28;20041;-67
2021/07/27 11:10:33;;;;;;;9.63;4.90;;;;;;;;;;4991448;28;20031;-67
2021/07/27 11:12:59;;;;;;;10.32;4.60;;;;;;;;;;4979033;28;20030;-72
2021/07/27 11:15:26;;;;;;;11.82;4.55;;;;;;;;;;4988625;28;20026;-72
2021/07/27 11:18:03;;;;;;;9.52;4.78;;;;;;;;;;4998926;28;20038;-73
2021/07/27 11:20:32;;;;;;;5.70;3.60;;;;;;;;;;4993788;28;20022;-72
2021/07/27 11:22:59;;;;;;;7.88;4.47;;;;;;;;;;4997707;28;20026;-72
2021/07/27 11:25:27;;;;;;;7.07;4.53;;;;;;;;;;4988765;28;20054;-72
2021/07/27 11:27:53;;;;;;;11.63;4.68;;;;;;;;;;4992487;28;20034;-73
2021/07/27 11:30:22;;;;;;;7.72;4.05;;;;;;;;;;4993605;28;20234;-72
2021/07/27 11:32:51;;;;;;;6.10;3.90;;;;;;;;;;4991623;28;20037;-72
2021/07/27 11:35:20;;;;;;;9.18;3.78;;;;;;;;;;4992910;28;20040;-72
2021/07/27 11:38:03;;;;;;;8.30;3.50;;;;;;;;;;4987764;28;20509;-72
2021/07/27 11:40:29;;;;;;;9.13;4.40;;;;;;;;;;4989197;28;20035;-73
2021/07/27 11:43:06;;;;;;;6.65;4.05;;;;;;;;;;4987950;28;20030;-67
2021/07/27 11:45:40;;;;;;;10.38;3.85;;;;;;;;;;4985449;28;20038;-68
2021/07/27 11:48:06;;;;;;;7.82;4.10;;;;;;;;;;4988735;28;20156;-68
2021/07/27 11:50:34;;;;;;;8.65;4.15;;;;;;;;;;4992863;28;20430;-67
2021/07/27 11:53:02;;;;;;;7.40;3.83;;;;;;;;;;4995107;28;20105;-68
2021/07/27 11:55:32;;;;;;;8.27;4.07;;;;;;;;;;4998708;28;20030;-68
2021/07/27 11:57:58;;;;;;;9.20;3.65;;;;;;;;;;4995195;28;20027;-68
2021/07/27 12:00:23;;;;;;;6.32;3.88;;;;;;;;;;4997591;28;20033;-67
2021/07/27 12:02:49;;;;;;;10.60;3.75;;;;;;;;;;4992822;28;20029;-67
2021/07/27 12:05:14;;;;;;;5.47;3.08;;;;;;;;;;4996306;28;20563;-68
2021/07/27 12:07:40;;;;;;;4.93;3.38;;;;;;;;;;4998508;28;20049;-68
2021/07/27 12:10:09;;;;;;;6.43;4.03;;;;;;;;;;4998720;28;20037;-67
2021/07/27 12:12:35;;;;;;;12.43;3.70;;;;;;;;;;4995746;28;20018;-68
2021/07/27 12:15:00;;;;;;;6.43;3.05;;;;;;;;;;5003315;28;20347;-68
2021/07/27 12:17:27;;;;;;;9.23;3.50;;;;;;;;;;4992934;28;20591;-71
2021/07/27 12:19:52;;;;;;;10.00;3.22;;;;;;;;;;5005726;28;20028;-71
2021/07/27 12:22:18;;;;;;;9.40;3.88;;;;;;;;;;4990969;28;20030;-71
2021/07/27 12:24:44;;;;;;;5.65;2.90;;;;;;;;;;5001548;28;20026;-72
2021/07/27 12:27:10;;;;;;;9.70;3.40;;;;;;;;;;5001820;28;20374;-71
2021/07/27 12:29:36;;;;;;;12.15;3.40;;;;;;;;;;4987077;28;20022;-71
2021/07/27 12:32:03;;;;;;;7.03;3.25;;;;;;;;;;4993253;28;20061;-70
2021/07/27 12:34:29;;;;;;;10.35;3.20;;;;;;;;;;4994432;28;20026;-72
2021/07/27 12:36:55;;;;;;;7.15;2.88;;;;;;;;;;4986948;28;20038;-72
2021/07/27 12:39:23;;;;;;;6.32;2.50;;;;;;;;;;5001601;28;20048;-72
2021/07/27 12:41:48;;;;;;;5.07;2.63;;;;;;;;;;4999525;28;20030;-72
2021/07/27 12:44:15;;;;;;;6.45;2.33;;;;;;;;;;5002005;28;20092;-72
2021/07/27 12:46:41;;;;;;;12.27;2.75;;;;;;;;;;4988921;28;20034;-72
2021/07/27 12:49:09;;;;;;;4.60;2.40;;;;;;;;;;4973986;28;20033;-71
2021/07/27 12:51:34;;;;;;;9.15;2.85;;;;;;;;;;5000117;28;20081;-71
2021/07/27 12:54:00;;;;;;;4.65;2.78;;;;;;;;;;4998071;28;20057;-68
2021/07/27 12:56:25;;;;;;;7.47;3.13;;;;;;;;;;4991400;28;20022;-68
2021/07/27 12:58:51;;;;;;;9.48;2.55;;;;;;;;;;4995843;28;20041;-67
2021/07/27 13:01:16;;;;;;;9.77;2.55;;;;;;;;;;4999143;28;20026;-68
2021/07/27 13:03:42;;;;;;;6.30;2.72;;;;;;;;;;4992698;28;20191;-68
2021/07/27 13:06:08;;;;;;;10.02;2.80;;;;;;;;;;4978460;28;20594;-68
2021/07/27 13:08:34;;;;;;;4.90;2.50;;;;;;;;;;4997059;28;20034;-68
2021/07/27 13:11:00;;;;;;;7.07;2.92;;;;;;;;;;4996893;28;20090;-68
2021/07/27 13:13:25;;;;;;;6.40;3.30;;;;;;;;;;4986322;28;20042;-68
2021/07/27 13:15:51;;;;;;;8.77;2.90;;;;;;;;;;4985126;28;20046;-68
2021/07/27 13:18:17;;;;;;;8.00;2.65;;;;;;;;;;4984069;28;20502;-68
2021/07/27 13:20:45;;;;;;;9.52;3.30;;;;;;;;;;4989115;28;20490;-67
2021/07/27 13:23:11;;;;;;;6.35;2.83;;;;;;;;;;4995632;28;20057;-71
2021/07/27 13:25:36;;;;;;;12.82;2.72;;;;;;;;;;4998098;28;20135;-71
2021/07/27 13:28:02;;;;;;;11.50;3.10;;;;;;;;;;4999860;28;20030;-71
2021/07/27 13:30:27;;;;;;;5.78;3.33;;;;;;;;;;4999231;28;20030;-71
2021/07/27 13:32:54;;;;;;;5.85;2.75;;;;;;;;;;5000732;28;20397;-71
2021/07/27 13:35:20;;;;;;;10.25;2.90;;;;;;;;;;5001814;28;20100;-71
2021/07/27 13:37:45;;;;;;;7.50;3.00;;;;;;;;;;5004954;28;20076;-70
2021/07/27 13:40:12;;;;;;;5.75;3.33;;;;;;;;;;4994474;28;20046;-70
2021/07/27 13:42:37;;;;;;;14.25;3.58;;;;;;;;;;4996722;28;20029;-71
2021/07/27 13:45:04;;;;;;;12.68;3.13;;;;;;;;;;4996402;28;20030;-70
2021/07/27 13:47:30;;;;;;;6.22;2.63;;;;;;;;;;4995226;28;20312;-71
2021/07/27 13:49:56;;;;;;;9.30;3.75;;;;;;;;;;4996023;28;20029;-70
2021/07/27 13:52:22;;;;;;;6.80;2.83;;;;;;;;;;4997364;28;20026;-67
2021/07/27 13:54:47;;;;;;;7.05;2.60;;;;;;;;;;4998164;28;20387;-67
2021/07/27 13:57:13;;;;;;;16.52;3.05;;;;;;;;;;4999930;28;20037;-67
2021/07/27 13:59:39;;;;;;;6.78;2.45;;;;;;;;;;4996085;28;20030;-67
2021/07/27 14:02:07;;;;;;;11.40;3.00;;;;;;;;;;4998017;28;20040;-68
2021/07/27 14:04:32;;;;;;;9.88;3.03;;;;;;;;;;4998007;28;20022;-67
2021/07/27 14:06:59;;;;;;;10.68;2.83;;;;;;;;;;4998260;28;20027;-68
2021/07/27 14:09:24;;;;;;;11.65;1.77;;;;;;;;;;4998141;28;20025;-68
2021/07/27 14:11:50;;;;;;;14.50;1.50;;;;;;;;;;5003066;28;20029;-68
2021/07/27 14:14:15;;;;;;;8.57;1.50;;;;;;;;;;5004283;28;20057;-68
2021/07/27 14:16:41;;;;;;;7.13;1.20;;;;;;;;;;4998539;28;20501;-67
2021/07/27 14:19:07;;;;;;;3.95;1.20;;;;;;;;;;4990195;28;20398;-68
2021/07/27 14:21:33;;;;;;;8.65;1.48;;;;;;;;;;4996166;28;20457;-67
2021/07/27 14:23:58;;;;;;;11.20;1.30;;;;;;;;;;4999598;28;20473;-71
2021/07/27 14:26:25;;;;;;;6.55;1.17;;;;;;;;;;4999224;28;20030;-70
2021/07/27 14:28:50;;;;;;;7.85;1.27;;;;;;;;;;5002666;28;20034;-70
2021/07/27 14:31:16;;;;;;;7.15;0.75;;;;;;;;;;5002108;28;20026;-71
2021/07/27 14:33:41;;;;;;;7.53;0.85;;;;;;;;;;4991583;28;20034;-71
2021/07/27 14:36:08;;;;;;;1.02;0.60;;;;;;;;;;4990612;28;20113;-71
2021/07/27 14:38:34;;;;;;;4.00;0.80;;;;;;;;;;5003191;28;20053;-72
2021/07/27 14:41:00;;;;;;;4.72;0.73;;;;;;;;;;4994756;28;20417;-71
2021/07/27 14:43:26;;;;;;;3.08;1.20;;;;;;;;;;4981328;28;20030;-71
2021/07/27 14:45:52;;;;;;;10.30;1.00;;;;;;;;;;4988973;28;20041;-71
2021/07/27 14:48:20;;;;;;;0.77;0.57;;;;;;;;;;4989539;28;20560;-72
2021/07/27 14:50:45;;;;;;;2.95;0.75;;;;;;;;;;4987991;28;20029;-72